メインページ
METAR-TAF:

METAR-TAF

空港 :

Bella Bella, ブリティッシュコロンビア州, カナダ

緯度: 52-11-06N, 経度: 128-09-24W, 海抜: 43m

現時点の気象観測

当レポートは48分前の17:23(UTC)に作成
南/南西の風 8kt、最大22ktの突風を伴う、から西の間で変化する
気温 11°C
湿度 87%
気圧 1011 hPa
視程: 14.5km
高度1000ftの曇り

METAR: CBBC 171723Z AUTO 21008G22KT 180V260 9SM OVC010 11/09 A2985 RMK PRESRR SLP110

時間: 10:11 (18:11 UTC)

予報

当レポートは3時間55分前の14:16(UTC)に作成
予報は17日の 14時(UTC)から 18日の 02時(UTC)まで有効
南/南西の風 10kt、最大20ktの突風を伴う
視程: 10km
高度800ftの雲は散在している
高度3000ftの曇り
17日の 14時(UTC)から 17日の 18時(UTC)まで一時的に
視程: 3.2km
高度800ftの千切れ雲あり
高度2000ftの曇り
弱いにわか雨, 靄
17日の 1800時(UTC)から
南西の風 12kt、最大22ktの突風を伴う
視程: 10km
高度1500ftの雲は散在している
高度4000ftの曇り
17日の 18時(UTC)から 18日の 02時(UTC)まで一時的に
視程: 8.0km
高度1500ftの千切れ雲あり
高度4000ftの曇り
弱いにわか雨, 靄

TAF: CBBC 171416Z 1714/1802 20010G20KT P6SM SCT008 OVC030 TEMPO 1714/1718 2SM -SHRA BR BKN008 OVC020 FM171800 22012G22KT P6SM SCT015 OVC040 TEMPO 1718/1802 5SM -SHRA BR BKN015 OVC040 RMK FCST BASED ON AUTO OBS. NXT FCST BY 171900Z

4,000以上の空港の気象観測と天気予報(METAR報とTAF報)

利用可能な観測所は地図上に黄色い丸と赤い丸で示す。

丸の上にカーソルを重ねると観測所名を参照できる。

次にクリックすると気象観測と天気予報を参照できる。

マップの切り替え:黒色「×」印の緑ボタンをクリックして拡大、「-」印の緑ボタンをクリックして縮小、緑色の三角印をクリックして隣りの地図に切り替え


METAR-TAF: